LFBY/XDA METAR and TAF weather

Enter ICAO airport designator
Station Type Date Time Source
LFBY METAR 2019/06/17 13:00 UTC NOAA

LFBY 171300Z 09007KT 050V140 CAVOK 29/13 Q1014


Station Type Date Time Source
LFBY Decoded METAR 2019/06/17 13:00 UTC NOAA

Dax, France (LFBY) 43-41N 001-04W 32M
Jun 17, 2019 - 09:00 AM EDT / 2019.06.17 1300 UTC
Wind: from the E (090 degrees) at 8 MPH (7 KT) (direction variable):0
Visibility: greater than 7 mile(s):0
Temperature: 84 F (29 C)
Dew Point: 55 F (13 C)
Relative Humidity: 37%
Pressure (altimeter): 29.94 in. Hg (1014 hPa)
ob: LFBY 171300Z 09007KT 050V140 CAVOK 29/13 Q1014
cycle: 13

Station Type Date Time Source
LFBY TAF UTC NOAA

Error!

Example: see airport list